Time;durP1;ratioP1;P1;durP2;ratioP2;P2;SDS_P1;SDS_P2;PMS_P1;PMS_P2;Temp;Humidity;BMP_temperature;BMP_pressure;BME280_temperature;BME280_humidity;BME280_pressure;Samples;Min_cycle;Max_cycle;Signal;HPM_P1;HPM_P2
2023/11/08 00:01:49;;;;;;;11.18;5.63;;;9.10;99.90;;;;;;4991470;28;20046;-73
2023/11/08 00:04:15;;;;;;;7.90;5.72;;;9.10;99.90;;;;;;4991117;28;20038;-73
2023/11/08 00:06:41;;;;;;;8.70;5.22;;;9.10;99.90;;;;;;4991392;28;20053;-73
2023/11/08 00:09:09;;;;;;;8.90;5.10;;;9.10;99.90;;;;;;4991230;28;20177;-73
2023/11/08 00:11:35;;;;;;;7.90;4.80;;;9.10;99.90;;;;;;4991297;28;20046;-72
2023/11/08 00:14:00;;;;;;;7.88;4.57;;;9.00;99.90;;;;;;4992173;28;20038;-73
2023/11/08 00:16:26;;;;;;;7.97;4.20;;;9.00;99.90;;;;;;4991454;28;20050;-73
2023/11/08 00:18:52;;;;;;;8.45;4.75;;;9.10;99.90;;;;;;4991386;28;20042;-72
2023/11/08 00:21:17;;;;;;;4.68;3.38;;;9.00;99.90;;;;;;4991473;28;20030;-73
2023/11/08 00:23:43;;;;;;;4.57;3.28;;;9.00;99.90;;;;;;4992156;28;20041;-73
2023/11/08 00:26:08;;;;;;;6.88;3.15;;;9.00;99.90;;;;;;4991185;28;20042;-73
2023/11/08 00:28:34;;;;;;;7.78;3.13;;;9.00;99.90;;;;;;4991139;28;20125;-73
2023/11/08 00:31:01;;;;;;;5.28;2.85;;;9.10;99.90;;;;;;4991183;28;20034;-73
2023/11/08 00:33:27;;;;;;;4.25;2.42;;;9.00;99.90;;;;;;4990437;28;20046;-73
2023/11/08 00:35:52;;;;;;;5.38;3.05;;;9.00;99.90;;;;;;4991052;28;20497;-72
2023/11/08 00:38:18;;;;;;;4.68;2.65;;;8.90;99.90;;;;;;4974878;28;20600;-73
2023/11/08 00:40:44;;;;;;;4.82;2.90;;;8.90;99.90;;;;;;4991009;28;20417;-73
2023/11/08 00:43:10;;;;;;;7.28;2.80;;;8.90;99.90;;;;;;4990806;28;20081;-73
2023/11/08 00:45:36;;;;;;;8.48;4.05;;;8.90;99.90;;;;;;4990980;28;20073;-72
2023/11/08 00:48:01;;;;;;;11.95;4.60;;;9.10;99.90;;;;;;4990864;28;20121;-73
2023/11/08 00:50:30;;;;;;;9.18;5.35;;;9.10;99.90;;;;;;4991217;28;20518;-72
2023/11/08 00:52:58;;;;;;;9.88;5.68;;;9.00;99.90;;;;;;4991874;28;20058;-73
2023/11/08 00:55:24;;;;;;;12.68;5.97;;;9.00;99.90;;;;;;4990884;28;20051;-73
2023/11/08 00:57:50;;;;;;;11.70;7.38;;;9.00;99.90;;;;;;4990774;28;20415;-73
2023/11/08 01:00:16;;;;;;;12.88;8.27;;;9.00;99.90;;;;;;4990878;28;20035;-73
2023/11/08 01:02:42;;;;;;;16.55;9.50;;;9.00;99.90;;;;;;4990282;28;20425;-73
2023/11/08 01:05:09;;;;;;;16.83;10.10;;;9.00;99.90;;;;;;4991015;28;20051;-72
2023/11/08 01:07:36;;;;;;;17.08;10.48;;;9.00;99.90;;;;;;4990733;28;20054;-73
2023/11/08 01:10:02;;;;;;;17.77;10.30;;;9.00;99.90;;;;;;4991053;28;20042;-73
2023/11/08 01:12:27;;;;;;;19.25;10.43;;;8.90;99.90;;;;;;4991017;28;20075;-73
2023/11/08 01:14:53;;;;;;;18.80;11.10;;;9.00;99.90;;;;;;4978316;28;20042;-73
2023/11/08 01:17:19;;;;;;;15.48;10.45;;;9.00;99.90;;;;;;4994217;28;20050;-73
2023/11/08 01:19:45;;;;;;;18.77;10.45;;;9.00;99.90;;;;;;4994472;28;20126;-72
2023/11/08 01:22:11;;;;;;;18.77;10.18;;;9.00;99.90;;;;;;4994442;28;20497;-73
2023/11/08 01:24:39;;;;;;;18.85;10.07;;;9.00;99.90;;;;;;4977773;28;20034;-73
2023/11/08 01:27:05;;;;;;;17.13;10.65;;;9.10;99.90;;;;;;4994265;28;20461;-73
2023/11/08 01:29:32;;;;;;;17.83;10.93;;;9.00;99.90;;;;;;4994233;28;20125;-73
2023/11/08 01:31:57;;;;;;;17.83;10.68;;;9.10;99.90;;;;;;4994063;28;20134;-73
2023/11/08 01:34:23;;;;;;;18.17;10.88;;;9.10;99.90;;;;;;4993836;28;20125;-73
2023/11/08 01:36:48;;;;;;;17.27;10.10;;;9.10;99.90;;;;;;4994399;28;20092;-73
2023/11/08 01:39:14;;;;;;;18.63;10.75;;;9.10;99.90;;;;;;4994133;28;20045;-73
2023/11/08 01:41:48;;;;;;;18.08;10.63;;;9.10;99.90;;;;;;4977901;28;20089;-73
2023/11/08 01:44:19;;;;;;;21.33;12.55;;;9.10;99.90;;;;;;4993792;28;20039;-73
2023/11/08 01:46:48;;;;;;;20.63;10.85;;;9.10;99.90;;;;;;4993949;28;20054;-72
2023/11/08 01:49:13;;;;;;;22.15;11.02;;;9.10;99.90;;;;;;4993896;28;20049;-73
2023/11/08 01:51:40;;;;;;;22.92;11.48;;;9.10;99.90;;;;;;4995212;28;20129;-73
2023/11/08 01:54:06;;;;;;;17.35;10.52;;;9.10;99.90;;;;;;4994647;28;20457;-73
2023/11/08 01:56:32;;;;;;;19.02;11.25;;;9.00;99.90;;;;;;4993693;28;20134;-73
2023/11/08 01:58:58;;;;;;;19.08;11.52;;;9.00;99.90;;;;;;4993728;28;20038;-73
2023/11/08 02:01:25;;;;;;;24.92;11.98;;;9.00;99.90;;;;;;4993664;28;20529;-73
2023/11/08 02:03:54;;;;;;;20.02;11.35;;;9.10;99.90;;;;;;4976955;28;20038;-72
2023/11/08 02:06:19;;;;;;;20.73;12.32;;;9.00;99.90;;;;;;4993593;28;20049;-73
2023/11/08 02:08:46;;;;;;;21.52;13.07;;;9.10;99.90;;;;;;4993438;28;20050;-73
2023/11/08 02:11:12;;;;;;;20.25;12.27;;;9.20;99.90;;;;;;4993461;28;20047;-73
2023/11/08 02:13:40;;;;;;;22.85;12.13;;;9.10;99.90;;;;;;4976661;28;20053;-73
2023/11/08 02:16:06;;;;;;;26.67;13.73;;;9.10;99.90;;;;;;4993362;28;20527;-73
2023/11/08 02:18:31;;;;;;;23.33;13.13;;;9.10;99.90;;;;;;4993343;28;20039;-73
2023/11/08 02:21:01;;;;;;;25.42;14.20;;;9.20;99.90;;;;;;4993301;28;20556;-73
2023/11/08 02:23:27;;;;;;;22.35;12.95;;;9.10;99.90;;;;;;4992656;28;20121;-73
2023/11/08 02:25:54;;;;;;;24.95;12.13;;;9.20;99.90;;;;;;4993241;28;20071;-72
2023/11/08 02:28:20;;;;;;;22.88;12.93;;;9.10;99.90;;;;;;4993085;28;20058;-73
2023/11/08 02:30:59;;;;;;;23.85;12.60;;;9.20;99.90;;;;;;4993054;28;20505;-73
2023/11/08 02:33:25;;;;;;;22.00;12.55;;;9.20;99.90;;;;;;4992588;28;20038;-73
2023/11/08 02:35:52;;;;;;;19.02;12.30;;;9.10;99.90;;;;;;4994359;28;20533;-73
2023/11/08 02:38:18;;;;;;;22.80;11.80;;;9.10;99.90;;;;;;4992954;28;20450;-73
2023/11/08 02:40:43;;;;;;;19.75;11.57;;;9.20;99.90;;;;;;4994098;28;20113;-73
2023/11/08 02:43:10;;;;;;;19.20;10.93;;;9.20;99.90;;;;;;4992442;28;20490;-73
2023/11/08 02:45:36;;;;;;;19.35;10.43;;;9.10;99.90;;;;;;4992791;28;20046;-73
2023/11/08 02:48:02;;;;;;;17.88;11.13;;;9.10;99.90;;;;;;4993025;28;20042;-73
2023/11/08 02:50:28;;;;;;;19.33;11.20;;;9.10;99.90;;;;;;4992744;28;20042;-73
2023/11/08 02:52:54;;;;;;;19.92;12.15;;;9.10;99.90;;;;;;4992447;28;20073;-73
2023/11/08 02:55:21;;;;;;;21.42;13.02;;;9.10;99.90;;;;;;4992804;28;20042;-73
2023/11/08 02:57:46;;;;;;;22.20;12.05;;;9.20;99.90;;;;;;4992509;28;20054;-73
2023/11/08 03:00:13;;;;;;;23.10;13.18;;;9.10;99.90;;;;;;4992466;28;20034;-73
2023/11/08 03:02:39;;;;;;;23.88;14.35;;;9.20;99.90;;;;;;4992303;28;20239;-73
2023/11/08 03:05:07;;;;;;;25.80;13.13;;;9.20;99.90;;;;;;4992458;28;20042;-73
2023/11/08 03:07:32;;;;;;;20.52;12.50;;;9.10;99.90;;;;;;4992390;28;20042;-73
2023/11/08 03:09:59;;;;;;;20.67;13.18;;;9.20;99.90;;;;;;4992232;28;20132;-73
2023/11/08 03:12:25;;;;;;;18.50;10.57;;;9.20;99.90;;;;;;4992120;28;20445;-73
2023/11/08 03:14:51;;;;;;;10.70;5.45;;;9.30;99.90;;;;;;4992222;28;20050;-73
2023/11/08 03:17:17;;;;;;;16.60;8.40;;;9.30;99.90;;;;;;4992174;28;20408;-73
2023/11/08 03:19:43;;;;;;;10.57;6.38;;;9.20;99.90;;;;;;4992470;28;20405;-73
2023/11/08 03:22:12;;;;;;;11.05;5.47;;;9.30;99.90;;;;;;4992005;28;20042;-73
2023/11/08 03:24:38;;;;;;;9.60;4.32;;;9.20;99.90;;;;;;4991698;28;20053;-73
2023/11/08 03:27:04;;;;;;;11.43;5.07;;;9.20;99.90;;;;;;4992026;28;20089;-73
2023/11/08 03:29:31;;;;;;;14.38;5.85;;;9.00;99.90;;;;;;4992037;28;20126;-73
2023/11/08 03:31:57;;;;;;;12.27;7.03;;;9.10;99.90;;;;;;4991940;28;20093;-73
2023/11/08 03:34:26;;;;;;;15.88;9.18;;;9.00;99.90;;;;;;4991437;28;20050;-73
2023/11/08 03:36:52;;;;;;;19.48;9.90;;;9.00;99.90;;;;;;4991199;28;20457;-73
2023/11/08 03:39:18;;;;;;;17.05;10.45;;;9.10;99.90;;;;;;4993123;28;20042;-73
2023/11/08 03:41:47;;;;;;;16.27;10.45;;;9.00;99.90;;;;;;4991778;28;20058;-73
2023/11/08 03:44:13;;;;;;;17.98;10.32;;;9.10;99.90;;;;;;4992540;28;20486;-73
2023/11/08 03:46:39;;;;;;;17.90;9.88;;;9.00;99.90;;;;;;4991694;28;20121;-73
2023/11/08 03:49:05;;;;;;;18.70;10.50;;;9.00;99.90;;;;;;4991655;28;20097;-73
2023/11/08 03:51:30;;;;;;;16.17;9.75;;;9.10;99.90;;;;;;4991586;28;20564;-73
2023/11/08 03:53:56;;;;;;;15.65;9.25;;;9.00;99.90;;;;;;4991129;28;20409;-73
2023/11/08 03:56:22;;;;;;;19.02;8.80;;;9.10;99.90;;;;;;4991564;28;20425;-73
2023/11/08 03:58:50;;;;;;;15.80;9.38;;;9.10;99.90;;;;;;4992679;28;20038;-74
2023/11/08 04:01:16;;;;;;;19.67;10.07;;;9.10;99.90;;;;;;4991490;28;20049;-73
2023/11/08 04:03:42;;;;;;;20.85;9.50;;;9.20;99.90;;;;;;4991026;28;20042;-74
2023/11/08 04:06:07;;;;;;;22.88;10.70;;;9.10;99.90;;;;;;5006911;28;20029;-73
2023/11/08 04:08:33;;;;;;;18.48;10.50;;;9.10;99.90;;;;;;5008448;28;20037;-73
2023/11/08 04:10:59;;;;;;;18.17;8.80;;;9.10;99.90;;;;;;5002554;28;20037;-73
2023/11/08 04:13:24;;;;;;;13.05;7.75;;;9.20;99.90;;;;;;5001153;28;20117;-73
2023/11/08 04:15:50;;;;;;;16.50;8.68;;;9.20;99.90;;;;;;4991274;28;20085;-73
2023/11/08 04:18:15;;;;;;;14.77;8.23;;;9.20;99.90;;;;;;4991229;28;20051;-73
2023/11/08 04:20:44;;;;;;;15.98;7.75;;;9.30;99.90;;;;;;4991206;28;20524;-72
2023/11/08 04:23:09;;;;;;;14.40;6.63;;;9.20;99.90;;;;;;4990733;28;20049;-73
2023/11/08 04:25:37;;;;;;;13.63;5.38;;;9.20;99.90;;;;;;5006887;28;20033;-73
2023/11/08 04:28:03;;;;;;;10.30;4.57;;;9.30;99.90;;;;;;4980213;28;20038;-73
2023/11/08 04:30:28;;;;;;;6.22;3.58;;;9.10;99.90;;;;;;4992428;28;20050;-73
2023/11/08 04:32:54;;;;;;;6.75;3.33;;;9.10;99.90;;;;;;4991788;28;20402;-73
2023/11/08 04:35:21;;;;;;;10.70;4.93;;;9.10;99.90;;;;;;4974775;28;20078;-74
2023/11/08 04:37:47;;;;;;;12.80;6.05;;;9.00;99.90;;;;;;5003577;28;20042;-73
2023/11/08 04:40:13;;;;;;;15.63;6.30;;;9.10;99.90;;;;;;5011505;28;20038;-73
2023/11/08 04:42:39;;;;;;;17.45;6.65;;;9.10;99.90;;;;;;4990788;28;20046;-73
2023/11/08 04:45:05;;;;;;;13.85;7.25;;;9.10;99.90;;;;;;4991260;28;20525;-73
2023/11/08 04:47:31;;;;;;;14.68;7.70;;;9.10;99.90;;;;;;4992054;28;20041;-73
2023/11/08 04:49:56;;;;;;;16.80;8.45;;;9.00;99.90;;;;;;4995168;28;20085;-73
2023/11/08 04:52:22;;;;;;;19.52;8.48;;;9.00;99.90;;;;;;4994448;28;20042;-73
2023/11/08 04:54:49;;;;;;;17.63;9.57;;;9.10;99.90;;;;;;4995134;28;20053;-73
2023/11/08 04:57:18;;;;;;;18.67;10.15;;;9.00;99.90;;;;;;4994713;28;20042;-73
2023/11/08 04:59:48;;;;;;;16.00;9.43;;;9.00;99.90;;;;;;4995003;28;20038;-73
2023/11/08 05:02:15;;;;;;;19.40;9.35;;;9.00;99.90;;;;;;4995907;28;20038;-73
2023/11/08 05:04:42;;;;;;;18.95;10.07;;;9.10;99.90;;;;;;4994368;28;20034;-73
2023/11/08 05:07:08;;;;;;;19.83;9.50;;;9.00;99.90;;;;;;4994684;28;20046;-74
2023/11/08 05:09:39;;;;;;;20.90;9.52;;;9.10;99.90;;;;;;4994849;28;20042;-74
2023/11/08 05:12:06;;;;;;;17.33;10.40;;;9.10;99.90;;;;;;4994539;28;20042;-74
2023/11/08 05:14:33;;;;;;;18.95;10.02;;;9.10;99.90;;;;;;4994127;28;20046;-73
2023/11/08 05:17:02;;;;;;;25.52;9.68;;;9.10;99.90;;;;;;4978111;28;20073;-73
2023/11/08 05:19:28;;;;;;;20.98;10.15;;;9.10;99.90;;;;;;4994459;28;20524;-72
2023/11/08 05:21:54;;;;;;;18.58;10.00;;;9.10;99.90;;;;;;4995797;28;20034;-74
2023/11/08 05:24:21;;;;;;;18.98;9.25;;;9.10;99.90;;;;;;4995263;28;20039;-73
2023/11/08 05:26:47;;;;;;;17.40;9.00;;;9.00;99.90;;;;;;4995537;28;20058;-73
2023/11/08 05:29:13;;;;;;;18.38;8.95;;;8.90;99.90;;;;;;4995532;28;20030;-73
2023/11/08 05:31:38;;;;;;;16.95;8.82;;;9.00;99.90;;;;;;4995446;28;20513;-73
2023/11/08 05:34:04;;;;;;;17.98;8.30;;;9.00;99.90;;;;;;4993712;28;20049;-73
2023/11/08 05:36:30;;;;;;;14.57;8.07;;;9.00;99.90;;;;;;4994058;28;20043;-73
2023/11/08 05:38:56;;;;;;;16.27;8.82;;;8.90;99.90;;;;;;4994372;28;20077;-73
2023/11/08 05:41:22;;;;;;;27.67;8.52;;;8.90;99.90;;;;;;4993994;28;20042;-73
2023/11/08 05:43:49;;;;;;;20.05;10.10;;;8.90;99.90;;;;;;4993494;28;20031;-73
2023/11/08 05:46:16;;;;;;;15.77;9.65;;;8.80;99.90;;;;;;4993972;28;20046;-73
2023/11/08 05:48:41;;;;;;;17.02;9.75;;;8.80;99.90;;;;;;4993962;28;20042;-73
2023/11/08 05:51:07;;;;;;;20.98;11.00;;;8.90;99.90;;;;;;4993798;28;20034;-73
2023/11/08 05:53:33;;;;;;;19.00;10.13;;;8.80;99.90;;;;;;4993356;28;20042;-73
2023/11/08 05:55:59;;;;;;;22.67;11.88;;;8.80;99.90;;;;;;4993692;28;20082;-73
2023/11/08 05:58:25;;;;;;;17.27;10.50;;;8.90;99.90;;;;;;4993256;28;20077;-73
2023/11/08 06:00:51;;;;;;;21.02;12.10;;;8.80;99.90;;;;;;4993625;28;20038;-74
2023/11/08 06:03:16;;;;;;;24.77;12.68;;;8.90;99.90;;;;;;4976932;28;20034;-73
2023/11/08 06:05:42;;;;;;;23.48;12.85;;;8.90;99.90;;;;;;4993637;28;20104;-73
2023/11/08 06:08:08;;;;;;;27.98;14.13;;;8.90;99.90;;;;;;4993737;28;20045;-73
2023/11/08 06:10:34;;;;;;;27.35;15.15;;;9.00;99.90;;;;;;4993787;28;20096;-73
2023/11/08 06:13:00;;;;;;;28.55;14.20;;;9.00;99.90;;;;;;4993308;28;20517;-73
2023/11/08 06:15:25;;;;;;;24.92;14.18;;;8.90;99.90;;;;;;4993718;28;20092;-72
2023/11/08 06:17:52;;;;;;;28.63;15.85;;;9.00;99.90;;;;;;4977061;28;20497;-73
2023/11/08 06:20:19;;;;;;;26.23;14.70;;;8.90;99.90;;;;;;4993677;28;20199;-73
2023/11/08 06:22:45;;;;;;;26.85;15.55;;;9.00;99.90;;;;;;4976756;28;20042;-72
2023/11/08 06:25:10;;;;;;;29.52;15.20;;;9.10;99.90;;;;;;4993210;28;20433;-72
2023/11/08 06:27:37;;;;;;;28.88;16.50;;;9.00;99.90;;;;;;4993202;28;20120;-72
2023/11/08 06:30:03;;;;;;;35.88;16.25;;;9.00;99.90;;;;;;4993407;28;20128;-72
2023/11/08 06:32:28;;;;;;;28.38;15.05;;;9.00;99.90;;;;;;4992663;28;20172;-72
2023/11/08 06:34:59;;;;;;;30.00;16.73;;;9.10;99.90;;;;;;4993053;28;20445;-72
2023/11/08 06:37:25;;;;;;;34.50;17.02;;;9.20;99.90;;;;;;4992960;28;20506;-72
2023/11/08 06:39:50;;;;;;;32.90;17.67;;;9.20;99.90;;;;;;4992720;28;20117;-73
2023/11/08 06:42:16;;;;;;;36.38;17.67;;;9.20;99.90;;;;;;4992453;28;20176;-73
2023/11/08 06:44:42;;;;;;;32.95;17.75;;;9.10;99.90;;;;;;4976518;28;20132;-73
2023/11/08 06:47:07;;;;;;;35.28;17.98;;;9.20;99.90;;;;;;4992880;28;20502;-73
2023/11/08 06:49:34;;;;;;;37.85;17.35;;;9.20;99.90;;;;;;4992767;28;20498;-73
2023/11/08 06:51:59;;;;;;;34.08;17.15;;;9.30;99.90;;;;;;4992588;28;20472;-73
2023/11/08 06:54:25;;;;;;;29.88;17.90;;;9.20;99.90;;;;;;4992495;28;20039;-73
2023/11/08 06:56:50;;;;;;;33.13;17.15;;;9.20;99.90;;;;;;4976349;28;20493;-73
2023/11/08 06:59:16;;;;;;;35.50;17.13;;;9.30;99.90;;;;;;4992507;28;20042;-73
2023/11/08 07:01:42;;;;;;;32.97;18.58;;;9.20;99.90;;;;;;4992498;28;20038;-72
2023/11/08 07:04:08;;;;;;;30.92;15.68;;;9.20;99.90;;;;;;4975751;28;20045;-73
2023/11/08 07:06:33;;;;;;;40.00;17.38;;;9.20;99.90;;;;;;4992469;28;20046;-73
2023/11/08 07:08:59;;;;;;;34.72;18.15;;;9.20;99.90;;;;;;4993554;28;20070;-72
2023/11/08 07:11:27;;;;;;;38.00;19.05;;;9.30;99.90;;;;;;4991710;28;20468;-73
2023/11/08 07:13:53;;;;;;;39.40;17.83;;;9.30;99.90;;;;;;4991818;28;20042;-73
2023/11/08 07:16:18;;;;;;;33.17;16.67;;;9.30;99.90;;;;;;4998979;28;20117;-73
2023/11/08 07:18:45;;;;;;;32.05;16.90;;;9.20;99.90;;;;;;5011498;28;20092;-73
2023/11/08 07:21:21;;;;;;;41.92;16.92;;;9.30;99.90;;;;;;5011779;28;20113;-73
2023/11/08 07:23:47;;;;;;;34.28;17.48;;;9.30;99.90;;;;;;5012442;28;20053;-73
2023/11/08 07:26:15;;;;;;;36.33;18.35;;;9.30;99.90;;;;;;5011612;28;20091;-73
2023/11/08 07:28:43;;;;;;;33.17;18.42;;;9.30;99.90;;;;;;5011617;28;20053;-73
2023/11/08 07:31:09;;;;;;;34.22;18.00;;;9.20;99.90;;;;;;5012852;28;20046;-73
2023/11/08 07:33:38;;;;;;;36.95;18.05;;;9.20;99.90;;;;;;5012474;28;20038;-73
2023/11/08 07:36:04;;;;;;;34.80;18.52;;;9.30;99.90;;;;;;5011469;28;20041;-73
2023/11/08 07:38:31;;;;;;;35.95;17.98;;;9.30;99.90;;;;;;5011211;28;20409;-73
2023/11/08 07:40:58;;;;;;;35.08;17.20;;;9.30;99.90;;;;;;5011332;28;20120;-73
2023/11/08 07:43:24;;;;;;;34.35;17.30;;;9.30;99.90;;;;;;5010845;28;20046;-72
2023/11/08 07:45:49;;;;;;;36.20;18.15;;;9.20;99.90;;;;;;5011322;28;20102;-73
2023/11/08 07:48:15;;;;;;;35.22;16.60;;;9.30;99.90;;;;;;5012659;28;20081;-72
2023/11/08 07:50:41;;;;;;;34.95;15.18;;;9.30;99.90;;;;;;5011211;28;20561;-73
2023/11/08 07:53:07;;;;;;;34.65;16.15;;;9.30;99.90;;;;;;4994329;28;20038;-72
2023/11/08 07:55:33;;;;;;;29.95;15.90;;;9.30;99.90;;;;;;5011424;28;20049;-72
2023/11/08 07:58:00;;;;;;;32.33;16.48;;;9.30;99.90;;;;;;5011094;28;20524;-75
2023/11/08 08:00:26;;;;;;;33.45;16.00;;;9.40;99.90;;;;;;5011319;28;20076;-72
2023/11/08 08:02:53;;;;;;;32.28;16.05;;;9.40;99.90;;;;;;5010510;28;20125;-73
2023/11/08 08:05:19;;;;;;;30.08;16.70;;;9.50;99.90;;;;;;5011036;28;20079;-72
2023/11/08 08:07:45;;;;;;;31.42;16.60;;;9.50;99.90;;;;;;5010678;28;20046;-73
2023/11/08 08:10:12;;;;;;;32.15;17.20;;;9.50;99.90;;;;;;5010950;28;20045;-73
2023/11/08 08:12:39;;;;;;;38.70;16.70;;;9.70;99.90;;;;;;5010432;28;20046;-73
2023/11/08 08:15:05;;;;;;;29.58;17.08;;;9.60;99.90;;;;;;5011073;28;20505;-72
2023/11/08 08:17:34;;;;;;;32.92;17.42;;;9.70;99.90;;;;;;5010903;28;20136;-73
2023/11/08 08:20:01;;;;;;;43.35;17.50;;;9.70;99.90;;;;;;5010828;28;20041;-73
2023/11/08 08:22:26;;;;;;;39.22;18.63;;;9.70;99.90;;;;;;5010258;28;20069;-73
2023/11/08 08:24:52;;;;;;;34.80;17.38;;;9.60;99.90;;;;;;5011037;28;20124;-73
2023/11/08 08:27:18;;;;;;;33.20;17.77;;;9.60;99.90;;;;;;5010788;28;20560;-73
2023/11/08 08:29:44;;;;;;;35.53;16.27;;;9.60;99.90;;;;;;4994352;28;20052;-73
2023/11/08 08:32:09;;;;;;;39.28;17.65;;;9.80;99.90;;;;;;5010822;28;20045;-72
2023/11/08 08:34:35;;;;;;;31.67;17.30;;;9.80;99.90;;;;;;5009715;28;20044;-74
2023/11/08 08:37:01;;;;;;;31.33;17.15;;;9.80;99.90;;;;;;5010451;28;20141;-73
2023/11/08 08:39:27;;;;;;;31.20;17.83;;;9.90;99.90;;;;;;5010047;28;20668;-72
2023/11/08 08:41:53;;;;;;;35.97;17.77;;;9.90;99.90;;;;;;5010163;28;20037;-72
2023/11/08 08:44:19;;;;;;;32.58;16.23;;;9.90;99.90;;;;;;5011396;28;20041;-73
2023/11/08 08:46:45;;;;;;;28.60;16.35;;;9.90;99.90;;;;;;5011802;28;20412;-75
2023/11/08 08:49:12;;;;;;;33.03;16.63;;;10.00;99.90;;;;;;5010452;28;20497;-73
2023/11/08 08:51:38;;;;;;;29.38;15.75;;;10.00;99.90;;;;;;5010551;28;20048;-74
2023/11/08 08:54:06;;;;;;;28.00;14.68;;;10.00;99.90;;;;;;5010071;28;20129;-75
2023/11/08 08:56:33;;;;;;;27.20;15.57;;;10.00;99.90;;;;;;4994425;28;20509;-74
2023/11/08 08:58:59;;;;;;;28.80;14.73;;;10.00;99.90;;;;;;5010436;28;20042;-74
2023/11/08 09:01:24;;;;;;;28.20;14.48;;;10.00;99.90;;;;;;5010444;28;20049;-74
2023/11/08 09:03:50;;;;;;;27.25;15.05;;;10.10;99.90;;;;;;5009939;28;20432;-74
2023/11/08 09:06:19;;;;;;;25.35;14.95;;;10.00;99.90;;;;;;5010366;28;20037;-74
2023/11/08 09:08:45;;;;;;;30.50;14.90;;;10.10;99.90;;;;;;5010520;28;20121;-74
2023/11/08 09:11:11;;;;;;;25.83;13.98;;;10.20;99.90;;;;;;5011871;28;20037;-74
2023/11/08 09:13:37;;;;;;;26.58;13.80;;;10.30;99.90;;;;;;5009836;28;20049;-74
2023/11/08 09:16:07;;;;;;;24.40;14.75;;;10.30;99.90;;;;;;4994001;28;20133;-74
2023/11/08 09:18:36;;;;;;;30.95;14.85;;;10.30;99.90;;;;;;5010139;28;20116;-74
2023/11/08 09:21:01;;;;;;;25.30;13.70;;;10.30;99.90;;;;;;5010542;28;20042;-74
2023/11/08 09:23:28;;;;;;;25.90;13.73;;;10.40;99.90;;;;;;5004601;28;20509;-73
2023/11/08 09:25:54;;;;;;;20.83;12.70;;;10.40;99.90;;;;;;5010109;28;20049;-74
2023/11/08 09:28:19;;;;;;;28.13;12.90;;;10.40;99.90;;;;;;5010033;28;20515;-74
2023/11/08 09:30:45;;;;;;;21.73;11.93;;;10.30;99.90;;;;;;4974903;28;20077;-75
2023/11/08 09:33:12;;;;;;;24.25;12.25;;;10.20;99.90;;;;;;4997806;28;20046;-74
2023/11/08 09:35:38;;;;;;;20.27;11.43;;;10.30;99.90;;;;;;5011487;28;20046;-74
2023/11/08 09:38:03;;;;;;;28.30;11.45;;;10.30;99.90;;;;;;4994031;28;20050;-74
2023/11/08 09:40:29;;;;;;;22.50;11.77;;;10.30;99.90;;;;;;4994055;28;20046;-74
2023/11/08 09:42:56;;;;;;;19.92;11.40;;;10.30;99.90;;;;;;4993709;28;20162;-74
2023/11/08 09:45:25;;;;;;;18.25;10.48;;;10.40;99.90;;;;;;4994278;28;20628;-74
2023/11/08 09:47:51;;;;;;;23.85;10.15;;;10.40;99.90;;;;;;4977710;28;20049;-74
2023/11/08 09:50:21;;;;;;;20.73;10.23;;;10.40;99.90;;;;;;4977683;28;20038;-74
2023/11/08 09:52:47;;;;;;;17.30;9.82;;;10.40;99.90;;;;;;4993415;28;20042;-74
2023/11/08 09:55:13;;;;;;;17.80;9.98;;;10.50;99.90;;;;;;4977893;28;20042;-74
2023/11/08 09:57:40;;;;;;;17.38;9.18;;;10.50;99.90;;;;;;4993698;28;20546;-74
2023/11/08 10:00:07;;;;;;;18.95;8.90;;;10.50;99.90;;;;;;4993972;28;20060;-74
2023/11/08 10:02:36;;;;;;;12.68;8.05;;;10.50;99.90;;;;;;4995117;28;20042;-73
2023/11/08 10:05:06;;;;;;;16.70;8.95;;;10.40;99.90;;;;;;4991728;28;20061;-74
2023/11/08 10:07:32;;;;;;;16.83;7.95;;;10.50;99.90;;;;;;4977372;28;20042;-74
2023/11/08 10:09:58;;;;;;;16.52;7.43;;;10.50;99.90;;;;;;4994729;28;20104;-74
2023/11/08 10:12:25;;;;;;;14.85;7.25;;;10.50;99.90;;;;;;4993370;28;20039;-73
2023/11/08 10:14:59;;;;;;;13.70;7.03;;;10.40;99.90;;;;;;4977159;28;20049;-74
2023/11/08 10:17:41;;;;;;;15.63;6.53;;;10.50;99.90;;;;;;4993332;28;20038;-73
2023/11/08 10:20:10;;;;;;;12.52;7.00;;;10.50;99.90;;;;;;4993369;28;20038;-74
2023/11/08 10:22:36;;;;;;;14.60;6.43;;;10.50;99.90;;;;;;4993040;28;20038;-74
2023/11/08 10:25:03;;;;;;;12.75;6.75;;;10.60;99.90;;;;;;4993362;28;20497;-74
2023/11/08 10:27:30;;;;;;;11.57;5.40;;;10.60;99.90;;;;;;4993328;28;20173;-73
2023/11/08 10:30:13;;;;;;;12.70;5.93;;;10.60;99.90;;;;;;4993512;28;20050;-74
2023/11/08 10:32:39;;;;;;;13.20;5.93;;;10.60;99.90;;;;;;4992985;28;20050;-73
2023/11/08 10:35:21;;;;;;;17.50;5.63;;;10.70;99.90;;;;;;4994289;28;20065;-74
2023/11/08 10:37:50;;;;;;;13.45;5.13;;;10.70;99.90;;;;;;4994287;28;20082;-73
2023/11/08 10:40:21;;;;;;;14.80;5.85;;;10.60;99.90;;;;;;4993087;28;20493;-73
2023/11/08 10:42:51;;;;;;;13.45;5.90;;;10.70;99.90;;;;;;4976273;28;20541;-73
2023/11/08 10:45:19;;;;;;;7.85;4.20;;;10.70;99.90;;;;;;4991982;28;20045;-73
2023/11/08 10:47:46;;;;;;;10.43;4.38;;;10.70;99.90;;;;;;4992856;28;20100;-74
2023/11/08 10:50:13;;;;;;;8.50;3.67;;;10.70;99.90;;;;;;4992373;28;20046;-76
2023/11/08 10:52:42;;;;;;;10.57;5.13;;;10.80;99.90;;;;;;4992343;28;20099;-72
2023/11/08 10:55:09;;;;;;;8.77;3.75;;;10.90;99.90;;;;;;4992380;28;20069;-76
2023/11/08 10:57:36;;;;;;;8.88;4.15;;;10.90;99.90;;;;;;4992865;28;20096;-76
2023/11/08 11:00:04;;;;;;;9.85;3.40;;;11.00;99.90;;;;;;4993046;28;20035;-76
2023/11/08 11:03:00;;;;;;;8.52;3.70;;;11.10;99.90;;;;;;4976369;28;20054;-77
2023/11/08 11:05:29;;;;;;;10.45;2.85;;;11.10;99.90;;;;;;4992829;28;20125;-76
2023/11/08 11:07:57;;;;;;;8.00;4.07;;;11.20;99.90;;;;;;4992286;28;20053;-76
2023/11/08 11:10:23;;;;;;;5.60;2.65;;;11.20;99.90;;;;;;4992787;28;20501;-76
2023/11/08 11:13:04;;;;;;;6.72;3.72;;;11.20;99.90;;;;;;4992133;28;20061;-76
2023/11/08 11:15:38;;;;;;;7.22;2.90;;;11.30;99.90;;;;;;4976289;28;20050;-76
2023/11/08 11:18:08;;;;;;;10.90;2.80;;;11.30;99.90;;;;;;4992595;28;20100;-76
2023/11/08 11:20:39;;;;;;;9.75;2.80;;;11.40;99.90;;;;;;4992389;28;20073;-75
2023/11/08 11:23:30;;;;;;;4.97;2.72;;;11.40;99.90;;;;;;4992150;28;20125;-76
2023/11/08 11:25:55;;;;;;;5.25;2.15;;;11.50;99.90;;;;;;4992340;28;20046;-76
2023/11/08 11:28:51;;;;;;;6.25;2.13;;;11.50;99.90;;;;;;4992259;28;20042;-76
2023/11/08 11:31:31;;;;;;;5.03;2.10;;;11.60;99.90;;;;;;4976071;28;20526;-76
2023/11/08 11:33:56;;;;;;;3.33;1.90;;;11.60;99.90;;;;;;4991738;28;20038;-76
2023/11/08 11:36:22;;;;;;;8.05;2.45;;;11.70;99.90;;;;;;4992481;28;20038;-76
2023/11/08 11:39:22;;;;;;;7.55;2.47;;;11.70;99.90;;;;;;4992313;28;20512;-76
2023/11/08 11:41:48;;;;;;;2.67;1.35;;;11.60;99.90;;;;;;4992088;28;20049;-75
2023/11/08 11:44:14;;;;;;;9.52;2.00;;;11.70;99.90;;;;;;4991527;28;20031;-75
2023/11/08 11:46:39;;;;;;;5.57;1.90;;;11.70;99.90;;;;;;4991861;28;20049;-78
2023/11/08 11:49:11;;;;;;;6.75;2.30;;;11.70;99.90;;;;;;4993589;28;20042;-78
2023/11/08 11:51:39;;;;;;;7.70;2.10;;;11.70;99.90;;;;;;4992335;28;20052;-78
2023/11/08 11:54:05;;;;;;;8.45;2.38;;;11.60;99.90;;;;;;4991965;28;20088;-78
2023/11/08 11:56:31;;;;;;;5.82;2.03;;;11.60;99.90;;;;;;4991578;28;20498;-78
2023/11/08 11:58:58;;;;;;;3.38;2.40;;;11.60;99.90;;;;;;4991776;28;20073;-78
2023/11/08 12:01:24;;;;;;;6.65;2.47;;;11.50;99.90;;;;;;4992411;28;20125;-78
2023/11/08 12:03:51;;;;;;;6.93;2.78;;;11.60;99.90;;;;;;4991431;28;20733;-78
2023/11/08 12:06:16;;;;;;;3.88;1.83;;;11.60;99.90;;;;;;4992073;28;20457;-78
2023/11/08 12:08:42;;;;;;;5.35;2.08;;;11.60;99.90;;;;;;4991826;28;20042;-78
2023/11/08 12:11:12;;;;;;;3.78;1.85;;;11.60;99.90;;;;;;4999826;28;20069;-78
2023/11/08 12:14:04;;;;;;;6.85;2.10;;;11.60;99.90;;;;;;4994188;28;20040;-78
2023/11/08 12:16:30;;;;;;;4.53;2.60;;;11.60;99.90;;;;;;5010192;28;20089;-78
2023/11/08 12:18:55;;;;;;;5.78;2.13;;;11.70;99.90;;;;;;4994522;28;20080;-78
2023/11/08 12:21:21;;;;;;;5.63;1.88;;;11.60;99.90;;;;;;5011181;28;20060;-78
2023/11/08 12:23:51;;;;;;;8.60;2.30;;;11.60;99.90;;;;;;5010166;28;20061;-78
2023/11/08 12:26:18;;;;;;;3.53;2.35;;;11.60;99.90;;;;;;5010700;28;20080;-78
2023/11/08 12:28:44;;;;;;;5.63;2.85;;;11.40;99.90;;;;;;5010109;28;20038;-78
2023/11/08 12:31:18;;;;;;;7.22;2.60;;;11.40;99.90;;;;;;4993732;28;20042;-77
2023/11/08 12:33:43;;;;;;;4.25;2.30;;;11.30;99.90;;;;;;5008116;28;20048;-78
2023/11/08 12:36:09;;;;;;;4.97;2.70;;;11.30;99.90;;;;;;4985130;28;20042;-77
2023/11/08 12:38:38;;;;;;;5.78;2.22;;;11.30;99.90;;;;;;5002256;28;20413;-78
2023/11/08 12:41:05;;;;;;;5.00;2.10;;;11.30;99.90;;;;;;5010777;28;20072;-79